sensor_id;sensor_type;location;lat;lon;timestamp;temperature;humidity
22006;DHT22;11167;46.988;15.470;2023-03-23T00:00:11;13.60;59.20
22006;DHT22;11167;46.988;15.470;2023-03-23T00:02:12;13.60;59.30
22006;DHT22;11167;46.988;15.470;2023-03-23T00:04:12;13.50;59.30
22006;DHT22;11167;46.988;15.470;2023-03-23T00:06:14;13.50;59.30
22006;DHT22;11167;46.988;15.470;2023-03-23T00:08:17;13.50;59.40
22006;DHT22;11167;46.988;15.470;2023-03-23T00:10:18;13.40;59.40
22006;DHT22;11167;46.988;15.470;2023-03-23T00:12:24;13.40;59.50
22006;DHT22;11167;46.988;15.470;2023-03-23T00:14:21;13.40;59.50
22006;DHT22;11167;46.988;15.470;2023-03-23T00:16:23;13.30;59.50
22006;DHT22;11167;46.988;15.470;2023-03-23T00:18:32;13.30;59.50
22006;DHT22;11167;46.988;15.470;2023-03-23T00:20:34;13.20;59.50
22006;DHT22;11167;46.988;15.470;2023-03-23T00:22:37;13.20;59.50
22006;DHT22;11167;46.988;15.470;2023-03-23T00:24:38;13.20;59.60
22006;DHT22;11167;46.988;15.470;2023-03-23T00:26:39;13.10;59.50
22006;DHT22;11167;46.988;15.470;2023-03-23T00:28:40;13.10;59.60
22006;DHT22;11167;46.988;15.470;2023-03-23T00:30:41;13.10;59.70
22006;DHT22;11167;46.988;15.470;2023-03-23T00:32:42;13.10;59.70
22006;DHT22;11167;46.988;15.470;2023-03-23T00:34:43;13.00;59.60
22006;DHT22;11167;46.988;15.470;2023-03-23T00:36:48;13.00;59.70
22006;DHT22;11167;46.988;15.470;2023-03-23T00:38:49;13.00;59.70
22006;DHT22;11167;46.988;15.470;2023-03-23T00:40:50;12.90;59.80
22006;DHT22;11167;46.988;15.470;2023-03-23T00:42:51;12.90;59.80
22006;DHT22;11167;46.988;15.470;2023-03-23T00:44:52;12.90;59.80
22006;DHT22;11167;46.988;15.470;2023-03-23T00:46:54;12.80;59.90
22006;DHT22;11167;46.988;15.470;2023-03-23T00:48:56;12.80;59.90
22006;DHT22;11167;46.988;15.470;2023-03-23T00:50:57;12.70;60.00
22006;DHT22;11167;46.988;15.470;2023-03-23T00:52:58;12.70;59.90
22006;DHT22;11167;46.988;15.470;2023-03-23T00:54:59;12.70;60.00
22006;DHT22;11167;46.988;15.470;2023-03-23T00:57:00;12.70;60.00
22006;DHT22;11167;46.988;15.470;2023-03-23T00:59:01;12.70;60.10
22006;DHT22;11167;46.988;15.470;2023-03-23T01:01:02;12.60;60.20
22006;DHT22;11167;46.988;15.470;2023-03-23T01:03:03;12.50;60.10
22006;DHT22;11167;46.988;15.470;2023-03-23T01:05:05;12.60;60.30
22006;DHT22;11167;46.988;15.470;2023-03-23T01:07:06;12.50;60.30
22006;DHT22;11167;46.988;15.470;2023-03-23T01:09:09;12.50;60.40
22006;DHT22;11167;46.988;15.470;2023-03-23T01:11:15;12.40;60.30
22006;DHT22;11167;46.988;15.470;2023-03-23T01:13:14;12.40;60.50
22006;DHT22;11167;46.988;15.470;2023-03-23T01:15:16;12.40;60.50
22006;DHT22;11167;46.988;15.470;2023-03-23T01:17:17;12.40;60.50
22006;DHT22;11167;46.988;15.470;2023-03-23T01:19:19;12.40;60.60
22006;DHT22;11167;46.988;15.470;2023-03-23T01:21:20;12.30;60.60
22006;DHT22;11167;46.988;15.470;2023-03-23T01:23:21;12.30;60.60
22006;DHT22;11167;46.988;15.470;2023-03-23T01:25:22;12.20;60.60
22006;DHT22;11167;46.988;15.470;2023-03-23T01:27:23;12.20;60.80
22006;DHT22;11167;46.988;15.470;2023-03-23T01:29:24;12.20;60.80
22006;DHT22;11167;46.988;15.470;2023-03-23T01:31:25;12.20;60.90
22006;DHT22;11167;46.988;15.470;2023-03-23T01:33:26;12.10;60.90
22006;DHT22;11167;46.988;15.470;2023-03-23T01:35:27;12.10;61.00
22006;DHT22;11167;46.988;15.470;2023-03-23T01:37:28;12.10;61.10
22006;DHT22;11167;46.988;15.470;2023-03-23T01:39:30;12.00;61.10
22006;DHT22;11167;46.988;15.470;2023-03-23T01:41:31;12.00;61.20
22006;DHT22;11167;46.988;15.470;2023-03-23T01:43:33;12.00;61.20
22006;DHT22;11167;46.988;15.470;2023-03-23T01:45:37;12.00;61.30
22006;DHT22;11167;46.988;15.470;2023-03-23T01:47:38;11.90;61.20
22006;DHT22;11167;46.988;15.470;2023-03-23T01:49:43;11.90;61.20
22006;DHT22;11167;46.988;15.470;2023-03-23T01:51:46;11.90;61.30
22006;DHT22;11167;46.988;15.470;2023-03-23T01:53:49;11.80;61.30
22006;DHT22;11167;46.988;15.470;2023-03-23T01:55:51;11.80;61.80
22006;DHT22;11167;46.988;15.470;2023-03-23T01:57:53;11.80;61.30
22006;DHT22;11167;46.988;15.470;2023-03-23T01:59:55;11.80;61.40
22006;DHT22;11167;46.988;15.470;2023-03-23T02:01:58;11.70;61.50
22006;DHT22;11167;46.988;15.470;2023-03-23T02:04:01;11.70;61.50
22006;DHT22;11167;46.988;15.470;2023-03-23T02:06:02;11.70;62.30
22006;DHT22;11167;46.988;15.470;2023-03-23T02:08:04;11.70;61.50
22006;DHT22;11167;46.988;15.470;2023-03-23T02:10:06;11.60;61.50
22006;DHT22;11167;46.988;15.470;2023-03-23T02:12:08;11.60;61.60
22006;DHT22;11167;46.988;15.470;2023-03-23T02:14:09;11.60;61.60
22006;DHT22;11167;46.988;15.470;2023-03-23T02:16:14;11.60;61.60
22006;DHT22;11167;46.988;15.470;2023-03-23T02:23:13;11.50;61.60
22006;DHT22;11167;46.988;15.470;2023-03-23T02:26:50;11.40;61.70
22006;DHT22;11167;46.988;15.470;2023-03-23T02:35:41;11.30;61.90
22006;DHT22;11167;46.988;15.470;2023-03-23T02:39:45;11.20;61.40
22006;DHT22;11167;46.988;15.470;2023-03-23T02:41:48;11.20;62.10
22006;DHT22;11167;46.988;15.470;2023-03-23T02:43:50;11.20;62.10
22006;DHT22;11167;46.988;15.470;2023-03-23T02:45:51;11.20;62.10
22006;DHT22;11167;46.988;15.470;2023-03-23T02:47:52;11.10;62.10
22006;DHT22;11167;46.988;15.470;2023-03-23T02:49:54;11.10;62.20
22006;DHT22;11167;46.988;15.470;2023-03-23T02:51:56;11.10;62.20
22006;DHT22;11167;46.988;15.470;2023-03-23T02:53:58;11.00;62.30
22006;DHT22;11167;46.988;15.470;2023-03-23T02:55:59;11.00;63.20
22006;DHT22;11167;46.988;15.470;2023-03-23T02:58:03;11.00;62.30
22006;DHT22;11167;46.988;15.470;2023-03-23T03:00:05;11.00;62.30
22006;DHT22;11167;46.988;15.470;2023-03-23T03:02:14;11.00;62.40
22006;DHT22;11167;46.988;15.470;2023-03-23T03:04:17;10.90;62.30
22006;DHT22;11167;46.988;15.470;2023-03-23T03:08:26;10.90;62.50
22006;DHT22;11167;46.988;15.470;2023-03-23T03:12:40;10.80;63.40
22006;DHT22;11167;46.988;15.470;2023-03-23T03:14:41;10.80;62.50
22006;DHT22;11167;46.988;15.470;2023-03-23T03:16:52;10.80;62.50
22006;DHT22;11167;46.988;15.470;2023-03-23T03:18:51;10.80;62.60
22006;DHT22;11167;46.988;15.470;2023-03-23T03:20:52;10.80;62.70
22006;DHT22;11167;46.988;15.470;2023-03-23T03:22:53;10.70;62.60
22006;DHT22;11167;46.988;15.470;2023-03-23T03:24:56;10.70;62.70
22006;DHT22;11167;46.988;15.470;2023-03-23T03:26:58;10.70;62.70
22006;DHT22;11167;46.988;15.470;2023-03-23T03:29:00;10.70;62.80
22006;DHT22;11167;46.988;15.470;2023-03-23T03:31:02;10.60;62.70
22006;DHT22;11167;46.988;15.470;2023-03-23T03:33:04;10.60;62.70
22006;DHT22;11167;46.988;15.470;2023-03-23T03:35:05;10.60;62.80
22006;DHT22;11167;46.988;15.470;2023-03-23T03:37:06;10.60;62.80
22006;DHT22;11167;46.988;15.470;2023-03-23T03:39:08;10.50;62.70
22006;DHT22;11167;46.988;15.470;2023-03-23T03:41:09;10.50;62.90
22006;DHT22;11167;46.988;15.470;2023-03-23T03:43:11;10.50;63.80
22006;DHT22;11167;46.988;15.470;2023-03-23T03:45:16;10.50;63.10
22006;DHT22;11167;46.988;15.470;2023-03-23T03:47:17;10.50;63.10
22006;DHT22;11167;46.988;15.470;2023-03-23T03:49:18;10.40;63.10
22006;DHT22;11167;46.988;15.470;2023-03-23T03:51:19;10.40;63.10
22006;DHT22;11167;46.988;15.470;2023-03-23T03:53:20;10.40;63.10
22006;DHT22;11167;46.988;15.470;2023-03-23T03:55:21;10.40;63.10
22006;DHT22;11167;46.988;15.470;2023-03-23T03:57:22;10.40;63.10
22006;DHT22;11167;46.988;15.470;2023-03-23T03:59:23;10.30;63.10
22006;DHT22;11167;46.988;15.470;2023-03-23T04:01:26;10.30;63.10
22006;DHT22;11167;46.988;15.470;2023-03-23T04:03:27;10.30;63.20
22006;DHT22;11167;46.988;15.470;2023-03-23T04:05:27;10.30;63.20
22006;DHT22;11167;46.988;15.470;2023-03-23T04:07:31;10.20;63.10
22006;DHT22;11167;46.988;15.470;2023-03-23T04:09:32;10.20;63.20
22006;DHT22;11167;46.988;15.470;2023-03-23T04:11:33;10.20;63.20
22006;DHT22;11167;46.988;15.470;2023-03-23T04:13:34;10.20;63.20
22006;DHT22;11167;46.988;15.470;2023-03-23T04:15:35;10.20;63.20
22006;DHT22;11167;46.988;15.470;2023-03-23T04:17:36;10.10;63.20
22006;DHT22;11167;46.988;15.470;2023-03-23T04:19:38;10.10;63.30
22006;DHT22;11167;46.988;15.470;2023-03-23T04:21:39;10.10;63.40
22006;DHT22;11167;46.988;15.470;2023-03-23T04:23:40;10.10;63.40
22006;DHT22;11167;46.988;15.470;2023-03-23T04:25:42;10.10;63.50
22006;DHT22;11167;46.988;15.470;2023-03-23T04:27:43;10.10;63.50
22006;DHT22;11167;46.988;15.470;2023-03-23T04:29:46;10.00;64.30
22006;DHT22;11167;46.988;15.470;2023-03-23T04:31:49;10.00;63.50
22006;DHT22;11167;46.988;15.470;2023-03-23T04:33:51;10.00;63.60
22006;DHT22;11167;46.988;15.470;2023-03-23T04:35:52;9.90;63.70
22006;DHT22;11167;46.988;15.470;2023-03-23T04:38:15;9.90;63.70
22006;DHT22;11167;46.988;15.470;2023-03-23T04:40:17;9.90;63.60
22006;DHT22;11167;46.988;15.470;2023-03-23T04:42:18;9.90;63.70
22006;DHT22;11167;46.988;15.470;2023-03-23T04:44:20;9.90;63.70
22006;DHT22;11167;46.988;15.470;2023-03-23T04:46:21;9.80;63.70
22006;DHT22;11167;46.988;15.470;2023-03-23T04:48:28;9.80;63.70
22006;DHT22;11167;46.988;15.470;2023-03-23T04:50:27;9.80;63.70
22006;DHT22;11167;46.988;15.470;2023-03-23T04:52:28;9.80;63.70
22006;DHT22;11167;46.988;15.470;2023-03-23T04:54:28;9.80;63.70
22006;DHT22;11167;46.988;15.470;2023-03-23T04:56:29;9.70;63.70
22006;DHT22;11167;46.988;15.470;2023-03-23T04:58:30;9.70;63.70
22006;DHT22;11167;46.988;15.470;2023-03-23T05:00:33;9.70;63.70
22006;DHT22;11167;46.988;15.470;2023-03-23T05:02:39;9.70;63.70
22006;DHT22;11167;46.988;15.470;2023-03-23T05:04:39;9.70;63.70
22006;DHT22;11167;46.988;15.470;2023-03-23T05:06:41;9.70;63.70
22006;DHT22;11167;46.988;15.470;2023-03-23T05:08:43;9.60;63.80
22006;DHT22;11167;46.988;15.470;2023-03-23T05:10:51;9.60;63.70
22006;DHT22;11167;46.988;15.470;2023-03-23T05:12:52;9.60;63.80
22006;DHT22;11167;46.988;15.470;2023-03-23T05:14:53;9.60;63.90
22006;DHT22;11167;46.988;15.470;2023-03-23T05:16:54;9.60;63.80
22006;DHT22;11167;46.988;15.470;2023-03-23T05:18:56;9.50;63.80
22006;DHT22;11167;46.988;15.470;2023-03-23T05:21:00;9.50;63.80
22006;DHT22;11167;46.988;15.470;2023-03-23T05:23:01;9.50;63.90
22006;DHT22;11167;46.988;15.470;2023-03-23T05:25:02;9.50;63.80
22006;DHT22;11167;46.988;15.470;2023-03-23T05:27:03;9.50;63.80
22006;DHT22;11167;46.988;15.470;2023-03-23T05:29:04;9.50;63.80
22006;DHT22;11167;46.988;15.470;2023-03-23T05:31:05;9.40;63.80
22006;DHT22;11167;46.988;15.470;2023-03-23T05:33:06;9.40;63.80
22006;DHT22;11167;46.988;15.470;2023-03-23T05:35:07;9.40;63.80
22006;DHT22;11167;46.988;15.470;2023-03-23T05:37:08;9.40;63.80
22006;DHT22;11167;46.988;15.470;2023-03-23T05:39:13;9.40;63.80
22006;DHT22;11167;46.988;15.470;2023-03-23T05:41:15;9.40;64.00
22006;DHT22;11167;46.988;15.470;2023-03-23T05:43:16;9.30;63.80
22006;DHT22;11167;46.988;15.470;2023-03-23T05:45:17;9.30;63.80
22006;DHT22;11167;46.988;15.470;2023-03-23T05:47:19;9.30;63.80
22006;DHT22;11167;46.988;15.470;2023-03-23T05:49:20;9.30;63.80
22006;DHT22;11167;46.988;15.470;2023-03-23T05:51:21;9.30;63.80
22006;DHT22;11167;46.988;15.470;2023-03-23T05:53:23;9.30;63.80
22006;DHT22;11167;46.988;15.470;2023-03-23T05:55:24;9.30;63.90
22006;DHT22;11167;46.988;15.470;2023-03-23T05:57:25;9.20;63.90
22006;DHT22;11167;46.988;15.470;2023-03-23T05:59:27;9.20;64.00
22006;DHT22;11167;46.988;15.470;2023-03-23T06:01:28;9.20;64.00
22006;DHT22;11167;46.988;15.470;2023-03-23T06:03:29;9.20;64.00
22006;DHT22;11167;46.988;15.470;2023-03-23T06:05:30;9.20;64.00
22006;DHT22;11167;46.988;15.470;2023-03-23T06:07:30;9.20;64.00
22006;DHT22;11167;46.988;15.470;2023-03-23T06:09:31;9.20;63.90
22006;DHT22;11167;46.988;15.470;2023-03-23T06:11:33;9.20;64.00
22006;DHT22;11167;46.988;15.470;2023-03-23T06:13:34;9.20;64.00
22006;DHT22;11167;46.988;15.470;2023-03-23T06:15:35;9.10;64.00
22006;DHT22;11167;46.988;15.470;2023-03-23T06:17:36;9.10;64.00
22006;DHT22;11167;46.988;15.470;2023-03-23T06:19:37;9.10;64.00
22006;DHT22;11167;46.988;15.470;2023-03-23T06:21:38;9.10;64.00
22006;DHT22;11167;46.988;15.470;2023-03-23T06:23:39;9.10;64.00
22006;DHT22;11167;46.988;15.470;2023-03-23T06:25:40;9.10;64.00
22006;DHT22;11167;46.988;15.470;2023-03-23T06:27:41;9.10;64.00
22006;DHT22;11167;46.988;15.470;2023-03-23T06:29:42;9.10;63.90
22006;DHT22;11167;46.988;15.470;2023-03-23T06:31:44;9.10;64.00
22006;DHT22;11167;46.988;15.470;2023-03-23T06:33:45;9.10;63.90
22006;DHT22;11167;46.988;15.470;2023-03-23T06:35:47;9.10;64.00
22006;DHT22;11167;46.988;15.470;2023-03-23T06:37:49;9.10;64.00
22006;DHT22;11167;46.988;15.470;2023-03-23T06:39:53;9.10;64.00
22006;DHT22;11167;46.988;15.470;2023-03-23T06:41:56;9.10;63.80
22006;DHT22;11167;46.988;15.470;2023-03-23T06:43:57;9.10;63.80
22006;DHT22;11167;46.988;15.470;2023-03-23T06:45:59;9.10;64.10
22006;DHT22;11167;46.988;15.470;2023-03-23T06:48:01;9.10;63.90
22006;DHT22;11167;46.988;15.470;2023-03-23T06:50:02;9.10;64.00
22006;DHT22;11167;46.988;15.470;2023-03-23T06:52:02;9.10;63.90
22006;DHT22;11167;46.988;15.470;2023-03-23T06:54:04;9.10;63.80
22006;DHT22;11167;46.988;15.470;2023-03-23T06:56:05;9.10;63.80
22006;DHT22;11167;46.988;15.470;2023-03-23T06:58:07;9.10;63.80
22006;DHT22;11167;46.988;15.470;2023-03-23T07:00:09;9.10;63.80
22006;DHT22;11167;46.988;15.470;2023-03-23T07:02:12;9.10;63.80
22006;DHT22;11167;46.988;15.470;2023-03-23T07:04:15;9.10;63.80
22006;DHT22;11167;46.988;15.470;2023-03-23T07:06:16;9.10;63.80
22006;DHT22;11167;46.988;15.470;2023-03-23T07:08:17;9.10;63.80
22006;DHT22;11167;46.988;15.470;2023-03-23T07:10:18;9.10;63.70
22006;DHT22;11167;46.988;15.470;2023-03-23T07:12:19;9.10;63.70
22006;DHT22;11167;46.988;15.470;2023-03-23T07:14:20;9.10;63.70
22006;DHT22;11167;46.988;15.470;2023-03-23T07:16:22;9.10;63.60
22006;DHT22;11167;46.988;15.470;2023-03-23T07:18:23;9.10;63.70
22006;DHT22;11167;46.988;15.470;2023-03-23T07:20:24;9.10;63.60
22006;DHT22;11167;46.988;15.470;2023-03-23T07:22:25;9.10;63.50
22006;DHT22;11167;46.988;15.470;2023-03-23T07:24:26;9.10;63.50
22006;DHT22;11167;46.988;15.470;2023-03-23T07:26:27;9.10;63.50
22006;DHT22;11167;46.988;15.470;2023-03-23T07:28:28;9.20;63.60
22006;DHT22;11167;46.988;15.470;2023-03-23T07:30:30;9.20;63.60
22006;DHT22;11167;46.988;15.470;2023-03-23T07:32:31;9.20;63.60
22006;DHT22;11167;46.988;15.470;2023-03-23T07:34:32;9.20;63.60
22006;DHT22;11167;46.988;15.470;2023-03-23T07:36:33;9.20;63.60
22006;DHT22;11167;46.988;15.470;2023-03-23T07:38:36;9.20;63.70
22006;DHT22;11167;46.988;15.470;2023-03-23T07:40:37;9.20;63.70
22006;DHT22;11167;46.988;15.470;2023-03-23T07:42:38;9.20;63.80
22006;DHT22;11167;46.988;15.470;2023-03-23T07:44:39;9.30;64.00
22006;DHT22;11167;46.988;15.470;2023-03-23T07:46:40;9.30;64.00
22006;DHT22;11167;46.988;15.470;2023-03-23T07:48:42;9.30;64.00
22006;DHT22;11167;46.988;15.470;2023-03-23T07:50:44;9.30;64.20
22006;DHT22;11167;46.988;15.470;2023-03-23T07:52:44;9.30;64.20
22006;DHT22;11167;46.988;15.470;2023-03-23T07:54:45;9.30;64.20
22006;DHT22;11167;46.988;15.470;2023-03-23T07:56:46;9.40;64.30
22006;DHT22;11167;46.988;15.470;2023-03-23T07:58:47;9.40;64.30
22006;DHT22;11167;46.988;15.470;2023-03-23T08:00:48;9.40;64.40
22006;DHT22;11167;46.988;15.470;2023-03-23T08:02:51;9.50;64.50
22006;DHT22;11167;46.988;15.470;2023-03-23T08:04:52;9.50;64.60
22006;DHT22;11167;46.988;15.470;2023-03-23T08:06:54;9.50;64.70
22006;DHT22;11167;46.988;15.470;2023-03-23T08:08:55;9.50;64.60
22006;DHT22;11167;46.988;15.470;2023-03-23T08:10:57;9.60;64.70
22006;DHT22;11167;46.988;15.470;2023-03-23T08:12:58;9.60;64.90
22006;DHT22;11167;46.988;15.470;2023-03-23T08:15:01;9.60;65.00
22006;DHT22;11167;46.988;15.470;2023-03-23T08:17:02;9.60;65.10
22006;DHT22;11167;46.988;15.470;2023-03-23T08:19:03;9.70;65.20
22006;DHT22;11167;46.988;15.470;2023-03-23T08:21:07;9.70;66.10
22006;DHT22;11167;46.988;15.470;2023-03-23T08:23:11;9.70;65.40
22006;DHT22;11167;46.988;15.470;2023-03-23T08:25:12;9.70;65.40
22006;DHT22;11167;46.988;15.470;2023-03-23T08:27:14;9.80;65.50
22006;DHT22;11167;46.988;15.470;2023-03-23T08:29:15;9.80;65.60
22006;DHT22;11167;46.988;15.470;2023-03-23T08:31:17;9.80;65.60
22006;DHT22;11167;46.988;15.470;2023-03-23T08:33:18;9.80;66.40
22006;DHT22;11167;46.988;15.470;2023-03-23T08:35:19;9.90;65.70
22006;DHT22;11167;46.988;15.470;2023-03-23T08:37:20;9.90;65.80
22006;DHT22;11167;46.988;15.470;2023-03-23T08:39:21;9.90;65.90
22006;DHT22;11167;46.988;15.470;2023-03-23T08:41:23;10.00;66.50
22006;DHT22;11167;46.988;15.470;2023-03-23T08:43:24;10.00;66.00
22006;DHT22;11167;46.988;15.470;2023-03-23T08:45:25;10.00;66.00
22006;DHT22;11167;46.988;15.470;2023-03-23T08:47:27;10.10;66.20
22006;DHT22;11167;46.988;15.470;2023-03-23T08:49:27;10.10;66.20
22006;DHT22;11167;46.988;15.470;2023-03-23T08:51:28;10.20;66.30
22006;DHT22;11167;46.988;15.470;2023-03-23T08:53:29;10.20;66.30
22006;DHT22;11167;46.988;15.470;2023-03-23T08:55:31;10.20;66.30
22006;DHT22;11167;46.988;15.470;2023-03-23T08:57:32;10.30;66.50
22006;DHT22;11167;46.988;15.470;2023-03-23T08:59:33;10.30;66.40
22006;DHT22;11167;46.988;15.470;2023-03-23T09:01:34;10.30;66.60
22006;DHT22;11167;46.988;15.470;2023-03-23T09:03:37;10.40;66.50
22006;DHT22;11167;46.988;15.470;2023-03-23T09:05:39;10.40;66.60
22006;DHT22;11167;46.988;15.470;2023-03-23T09:07:44;10.50;66.60
22006;DHT22;11167;46.988;15.470;2023-03-23T09:09:45;10.50;67.40
22006;DHT22;11167;46.988;15.470;2023-03-23T09:11:45;10.50;66.60
22006;DHT22;11167;46.988;15.470;2023-03-23T09:13:46;10.60;66.60
22006;DHT22;11167;46.988;15.470;2023-03-23T09:15:48;10.60;66.60
22006;DHT22;11167;46.988;15.470;2023-03-23T09:17:50;10.70;66.60
22006;DHT22;11167;46.988;15.470;2023-03-23T09:19:51;10.70;66.70
22006;DHT22;11167;46.988;15.470;2023-03-23T09:21:51;10.70;66.70
22006;DHT22;11167;46.988;15.470;2023-03-23T09:23:52;10.80;66.70
22006;DHT22;11167;46.988;15.470;2023-03-23T09:25:53;10.80;66.80
22006;DHT22;11167;46.988;15.470;2023-03-23T09:27:55;10.90;66.90
22006;DHT22;11167;46.988;15.470;2023-03-23T09:29:56;10.90;66.90
22006;DHT22;11167;46.988;15.470;2023-03-23T09:31:57;11.00;67.00
22006;DHT22;11167;46.988;15.470;2023-03-23T09:33:58;11.00;66.90
22006;DHT22;11167;46.988;15.470;2023-03-23T09:35:59;11.00;66.90
22006;DHT22;11167;46.988;15.470;2023-03-23T09:38:02;11.10;67.00
22006;DHT22;11167;46.988;15.470;2023-03-23T09:40:05;11.20;67.00
22006;DHT22;11167;46.988;15.470;2023-03-23T09:48:45;11.30;67.00
22006;DHT22;11167;46.988;15.470;2023-03-23T09:50:45;11.40;67.10
22006;DHT22;11167;46.988;15.470;2023-03-23T09:52:55;11.40;67.10
22006;DHT22;11167;46.988;15.470;2023-03-23T09:54:56;11.50;67.10
22006;DHT22;11167;46.988;15.470;2023-03-23T09:56:57;11.50;67.10
22006;DHT22;11167;46.988;15.470;2023-03-23T09:59:00;11.60;67.20
22006;DHT22;11167;46.988;15.470;2023-03-23T10:01:06;11.60;67.30
22006;DHT22;11167;46.988;15.470;2023-03-23T10:03:19;11.70;67.30
22006;DHT22;11167;46.988;15.470;2023-03-23T10:05:30;11.80;67.40
22006;DHT22;11167;46.988;15.470;2023-03-23T10:07:30;11.80;67.50
22006;DHT22;11167;46.988;15.470;2023-03-23T10:09:32;11.80;67.50
22006;DHT22;11167;46.988;15.470;2023-03-23T10:16:19;12.00;67.70
22006;DHT22;11167;46.988;15.470;2023-03-23T10:21:14;12.20;67.80
22006;DHT22;11167;46.988;15.470;2023-03-23T10:22:32;12.20;67.80
22006;DHT22;11167;46.988;15.470;2023-03-23T10:24:39;12.30;67.80
22006;DHT22;11167;46.988;15.470;2023-03-23T10:28:44;12.40;67.80
22006;DHT22;11167;46.988;15.470;2023-03-23T10:30:47;12.40;67.80
22006;DHT22;11167;46.988;15.470;2023-03-23T10:32:50;12.50;67.90
22006;DHT22;11167;46.988;15.470;2023-03-23T10:36:57;12.60;68.10
22006;DHT22;11167;46.988;15.470;2023-03-23T10:39:20;12.70;68.20
22006;DHT22;11167;46.988;15.470;2023-03-23T10:41:04;12.70;68.20
22006;DHT22;11167;46.988;15.470;2023-03-23T10:43:07;12.80;68.20
22006;DHT22;11167;46.988;15.470;2023-03-23T10:45:19;12.80;68.20
22006;DHT22;11167;46.988;15.470;2023-03-23T10:47:22;12.90;69.10
22006;DHT22;11167;46.988;15.470;2023-03-23T10:49:28;13.00;68.20
22006;DHT22;11167;46.988;15.470;2023-03-23T10:51:31;13.00;68.10
22006;DHT22;11167;46.988;15.470;2023-03-23T10:53:31;13.10;68.10
22006;DHT22;11167;46.988;15.470;2023-03-23T10:55:39;13.20;68.20
22006;DHT22;11167;46.988;15.470;2023-03-23T10:57:45;13.20;68.10
22006;DHT22;11167;46.988;15.470;2023-03-23T10:59:43;13.30;68.80
22006;DHT22;11167;46.988;15.470;2023-03-23T11:01:45;13.30;68.10
22006;DHT22;11167;46.988;15.470;2023-03-23T11:03:48;13.40;68.30
22006;DHT22;11167;46.988;15.470;2023-03-23T11:05:54;13.50;68.30
22006;DHT22;11167;46.988;15.470;2023-03-23T11:07:57;13.50;68.20
22006;DHT22;11167;46.988;15.470;2023-03-23T11:10:07;13.60;68.20
22006;DHT22;11167;46.988;15.470;2023-03-23T11:12:16;13.70;68.30
22006;DHT22;11167;46.988;15.470;2023-03-23T11:18:37;13.90;68.30
22006;DHT22;11167;46.988;15.470;2023-03-23T11:20:41;14.00;68.40
22006;DHT22;11167;46.988;15.470;2023-03-23T11:22:42;14.00;68.40
22006;DHT22;11167;46.988;15.470;2023-03-23T11:24:44;14.10;68.30
22006;DHT22;11167;46.988;15.470;2023-03-23T11:26:46;14.20;68.30
22006;DHT22;11167;46.988;15.470;2023-03-23T11:30:57;14.40;68.50
22006;DHT22;11167;46.988;15.470;2023-03-23T11:32:59;14.40;69.10
22006;DHT22;11167;46.988;15.470;2023-03-23T11:35:06;14.50;68.60
22006;DHT22;11167;46.988;15.470;2023-03-23T11:37:54;14.60;68.50
22006;DHT22;11167;46.988;15.470;2023-03-23T11:41:31;14.70;68.40
22006;DHT22;11167;46.988;15.470;2023-03-23T11:43:29;14.80;68.50
22006;DHT22;11167;46.988;15.470;2023-03-23T11:45:32;14.90;68.60
22006;DHT22;11167;46.988;15.470;2023-03-23T11:47:41;14.90;68.50
22006;DHT22;11167;46.988;15.470;2023-03-23T11:56:19;15.20;68.40
22006;DHT22;11167;46.988;15.470;2023-03-23T11:58:20;15.30;68.40
22006;DHT22;11167;46.988;15.470;2023-03-23T12:00:22;15.30;68.40
22006;DHT22;11167;46.988;15.470;2023-03-23T12:17:43;15.80;68.50
22006;DHT22;11167;46.988;15.470;2023-03-23T12:19:46;15.90;68.50
22006;DHT22;11167;46.988;15.470;2023-03-23T12:21:58;16.00;68.50
22006;DHT22;11167;46.988;15.470;2023-03-23T12:23:58;16.10;68.50
22006;DHT22;11167;46.988;15.470;2023-03-23T12:36:43;16.50;68.50
22006;DHT22;11167;46.988;15.470;2023-03-23T12:47:08;16.90;68.60
22006;DHT22;11167;46.988;15.470;2023-03-23T12:49:07;17.00;69.40
22006;DHT22;11167;46.988;15.470;2023-03-23T12:51:22;17.10;68.60
22006;DHT22;11167;46.988;15.470;2023-03-23T12:53:30;17.20;68.70
22006;DHT22;11167;46.988;15.470;2023-03-23T12:55:36;17.30;68.60
22006;DHT22;11167;46.988;15.470;2023-03-23T12:59:39;17.50;68.80
22006;DHT22;11167;46.988;15.470;2023-03-23T13:01:46;17.60;68.70
22006;DHT22;11167;46.988;15.470;2023-03-23T13:03:49;17.70;68.20
22006;DHT22;11167;46.988;15.470;2023-03-23T13:06:00;17.80;68.60
22006;DHT22;11167;46.988;15.470;2023-03-23T13:10:12;18.00;68.70
22006;DHT22;11167;46.988;15.470;2023-03-23T13:12:07;18.00;68.60
22006;DHT22;11167;46.988;15.470;2023-03-23T13:18:39;18.30;68.70
22006;DHT22;11167;46.988;15.470;2023-03-23T13:25:08;18.70;69.30
22006;DHT22;11167;46.988;15.470;2023-03-23T13:29:30;18.90;68.70
22006;DHT22;11167;46.988;15.470;2023-03-23T13:31:33;18.90;68.60
22006;DHT22;11167;46.988;15.470;2023-03-23T13:33:36;19.00;68.60
22006;DHT22;11167;46.988;15.470;2023-03-23T13:35:37;19.00;68.50
22006;DHT22;11167;46.988;15.470;2023-03-23T13:37:44;19.10;68.50
22006;DHT22;11167;46.988;15.470;2023-03-23T13:39:55;19.20;68.50
22006;DHT22;11167;46.988;15.470;2023-03-23T13:44:16;19.40;68.50
22006;DHT22;11167;46.988;15.470;2023-03-23T13:48:21;19.50;68.40
22006;DHT22;11167;46.988;15.470;2023-03-23T13:52:39;19.70;68.30
22006;DHT22;11167;46.988;15.470;2023-03-23T13:54:41;19.70;68.30
22006;DHT22;11167;46.988;15.470;2023-03-23T13:56:47;19.80;68.50
22006;DHT22;11167;46.988;15.470;2023-03-23T13:58:52;19.90;68.30
22006;DHT22;11167;46.988;15.470;2023-03-23T14:03:19;20.00;68.10
22006;DHT22;11167;46.988;15.470;2023-03-23T14:07:23;20.10;68.00
22006;DHT22;11167;46.988;15.470;2023-03-23T14:09:29;20.20;68.00
22006;DHT22;11167;46.988;15.470;2023-03-23T14:11:30;20.30;67.90
22006;DHT22;11167;46.988;15.470;2023-03-23T14:13:33;20.30;67.80
22006;DHT22;11167;46.988;15.470;2023-03-23T14:15:40;20.40;68.00
22006;DHT22;11167;46.988;15.470;2023-03-23T14:17:41;20.50;68.10
22006;DHT22;11167;46.988;15.470;2023-03-23T14:19:40;20.60;68.20
22006;DHT22;11167;46.988;15.470;2023-03-23T14:21:44;20.60;67.90
22006;DHT22;11167;46.988;15.470;2023-03-23T14:23:44;20.70;68.00
22006;DHT22;11167;46.988;15.470;2023-03-23T14:25:54;20.80;67.90
22006;DHT22;11167;46.988;15.470;2023-03-23T14:27:50;20.90;67.80
22006;DHT22;11167;46.988;15.470;2023-03-23T14:30:01;20.90;67.70
22006;DHT22;11167;46.988;15.470;2023-03-23T14:32:02;21.00;67.60
22006;DHT22;11167;46.988;15.470;2023-03-23T14:34:13;21.00;67.80
22006;DHT22;11167;46.988;15.470;2023-03-23T14:36:14;21.10;67.60